sensor_id;sensor_type;location;lat;lon;timestamp;temperature;humidity
2957;DHT22;1488;51.548;7.222;2023-12-20T00:00:22;22.80;59.80
2957;DHT22;1488;51.548;7.222;2023-12-20T00:02:50;22.80;59.80
2957;DHT22;1488;51.548;7.222;2023-12-20T00:05:17;22.80;59.90
2957;DHT22;1488;51.548;7.222;2023-12-20T00:07:43;22.80;59.90
2957;DHT22;1488;51.548;7.222;2023-12-20T00:10:10;22.80;59.90
2957;DHT22;1488;51.548;7.222;2023-12-20T00:12:38;22.70;59.90
2957;DHT22;1488;51.548;7.222;2023-12-20T00:15:06;22.70;59.80
2957;DHT22;1488;51.548;7.222;2023-12-20T00:17:33;22.70;59.80
2957;DHT22;1488;51.548;7.222;2023-12-20T00:20:00;22.70;59.80
2957;DHT22;1488;51.548;7.222;2023-12-20T00:22:27;22.70;59.90
2957;DHT22;1488;51.548;7.222;2023-12-20T00:24:54;22.70;59.80
2957;DHT22;1488;51.548;7.222;2023-12-20T00:27:20;22.70;60.70
2957;DHT22;1488;51.548;7.222;2023-12-20T00:29:48;22.70;59.90
2957;DHT22;1488;51.548;7.222;2023-12-20T00:32:15;22.70;59.90
2957;DHT22;1488;51.548;7.222;2023-12-20T00:34:43;22.70;59.90
2957;DHT22;1488;51.548;7.222;2023-12-20T00:37:11;22.70;59.90
2957;DHT22;1488;51.548;7.222;2023-12-20T00:39:38;22.60;59.80
2957;DHT22;1488;51.548;7.222;2023-12-20T00:42:05;22.60;59.90
2957;DHT22;1488;51.548;7.222;2023-12-20T00:44:31;22.60;59.90
2957;DHT22;1488;51.548;7.222;2023-12-20T00:46:58;22.60;60.00
2957;DHT22;1488;51.548;7.222;2023-12-20T00:49:25;22.60;59.90
2957;DHT22;1488;51.548;7.222;2023-12-20T00:51:52;22.60;60.00
2957;DHT22;1488;51.548;7.222;2023-12-20T00:54:20;22.60;59.90
2957;DHT22;1488;51.548;7.222;2023-12-20T00:56:47;22.60;60.00
2957;DHT22;1488;51.548;7.222;2023-12-20T00:59:13;22.60;60.00
2957;DHT22;1488;51.548;7.222;2023-12-20T01:01:40;22.50;59.90
2957;DHT22;1488;51.548;7.222;2023-12-20T01:04:07;22.60;60.00
2957;DHT22;1488;51.548;7.222;2023-12-20T01:06:34;22.50;60.00
2957;DHT22;1488;51.548;7.222;2023-12-20T01:09:01;22.50;60.00
2957;DHT22;1488;51.548;7.222;2023-12-20T01:11:29;22.50;60.00
2957;DHT22;1488;51.548;7.222;2023-12-20T01:13:56;22.50;60.00
2957;DHT22;1488;51.548;7.222;2023-12-20T01:16:23;22.50;60.00
2957;DHT22;1488;51.548;7.222;2023-12-20T01:18:49;22.50;60.00
2957;DHT22;1488;51.548;7.222;2023-12-20T01:21:16;22.50;60.00
2957;DHT22;1488;51.548;7.222;2023-12-20T01:23:43;22.50;60.00
2957;DHT22;1488;51.548;7.222;2023-12-20T01:26:10;22.50;60.00
2957;DHT22;1488;51.548;7.222;2023-12-20T01:28:38;22.50;60.20
2957;DHT22;1488;51.548;7.222;2023-12-20T01:31:05;22.50;60.30
2957;DHT22;1488;51.548;7.222;2023-12-20T01:33:32;22.50;60.30
2957;DHT22;1488;51.548;7.222;2023-12-20T01:35:58;22.50;60.30
2957;DHT22;1488;51.548;7.222;2023-12-20T01:38:25;22.50;60.20
2957;DHT22;1488;51.548;7.222;2023-12-20T01:40:52;22.50;60.10
2957;DHT22;1488;51.548;7.222;2023-12-20T01:43:19;22.50;60.00
2957;DHT22;1488;51.548;7.222;2023-12-20T01:45:47;22.50;60.00
2957;DHT22;1488;51.548;7.222;2023-12-20T01:48:15;22.50;60.00
2957;DHT22;1488;51.548;7.222;2023-12-20T01:50:42;22.50;60.00
2957;DHT22;1488;51.548;7.222;2023-12-20T01:53:11;22.50;60.00
2957;DHT22;1488;51.548;7.222;2023-12-20T01:55:40;22.50;60.00
2957;DHT22;1488;51.548;7.222;2023-12-20T01:58:08;22.50;60.00
2957;DHT22;1488;51.548;7.222;2023-12-20T02:00:36;22.50;60.00
2957;DHT22;1488;51.548;7.222;2023-12-20T02:03:04;22.50;60.00
2957;DHT22;1488;51.548;7.222;2023-12-20T02:05:32;22.50;59.90
2957;DHT22;1488;51.548;7.222;2023-12-20T02:07:59;22.50;59.90
2957;DHT22;1488;51.548;7.222;2023-12-20T02:10:26;22.60;60.00
2957;DHT22;1488;51.548;7.222;2023-12-20T02:12:54;22.60;60.00
2957;DHT22;1488;51.548;7.222;2023-12-20T02:15:21;22.50;59.90
2957;DHT22;1488;51.548;7.222;2023-12-20T02:17:48;22.60;60.00
2957;DHT22;1488;51.548;7.222;2023-12-20T02:20:17;22.60;59.90
2957;DHT22;1488;51.548;7.222;2023-12-20T02:22:45;22.50;59.70
2957;DHT22;1488;51.548;7.222;2023-12-20T02:25:12;22.60;59.90
2957;DHT22;1488;51.548;7.222;2023-12-20T02:27:39;22.60;59.90
2957;DHT22;1488;51.548;7.222;2023-12-20T02:30:07;22.60;59.90
2957;DHT22;1488;51.548;7.222;2023-12-20T02:32:34;22.60;59.80
2957;DHT22;1488;51.548;7.222;2023-12-20T02:35:01;22.60;59.80
2957;DHT22;1488;51.548;7.222;2023-12-20T02:37:28;22.60;59.80
2957;DHT22;1488;51.548;7.222;2023-12-20T02:39:56;22.60;59.90
2957;DHT22;1488;51.548;7.222;2023-12-20T02:42:23;22.60;59.80
2957;DHT22;1488;51.548;7.222;2023-12-20T02:44:49;22.50;59.80
2957;DHT22;1488;51.548;7.222;2023-12-20T02:47:16;22.60;59.80
2957;DHT22;1488;51.548;7.222;2023-12-20T02:49:43;22.60;59.80
2957;DHT22;1488;51.548;7.222;2023-12-20T02:52:10;22.60;59.80
2957;DHT22;1488;51.548;7.222;2023-12-20T02:54:37;22.50;59.70
2957;DHT22;1488;51.548;7.222;2023-12-20T02:57:05;22.60;59.80
2957;DHT22;1488;51.548;7.222;2023-12-20T02:59:32;22.50;59.70
2957;DHT22;1488;51.548;7.222;2023-12-20T03:01:59;22.50;59.70
2957;DHT22;1488;51.548;7.222;2023-12-20T03:04:25;22.50;59.70
2957;DHT22;1488;51.548;7.222;2023-12-20T03:06:52;22.50;59.70
2957;DHT22;1488;51.548;7.222;2023-12-20T03:09:19;22.50;59.70
2957;DHT22;1488;51.548;7.222;2023-12-20T03:11:46;22.50;59.70
2957;DHT22;1488;51.548;7.222;2023-12-20T03:14:14;22.50;59.70
2957;DHT22;1488;51.548;7.222;2023-12-20T03:16:41;22.50;59.70
2957;DHT22;1488;51.548;7.222;2023-12-20T03:19:07;22.50;59.60
2957;DHT22;1488;51.548;7.222;2023-12-20T03:21:34;22.50;59.60
2957;DHT22;1488;51.548;7.222;2023-12-20T03:24:01;22.50;59.60
2957;DHT22;1488;51.548;7.222;2023-12-20T03:26:28;22.60;59.70
2957;DHT22;1488;51.548;7.222;2023-12-20T03:28:54;22.60;59.70
2957;DHT22;1488;51.548;7.222;2023-12-20T03:31:22;22.60;59.60
2957;DHT22;1488;51.548;7.222;2023-12-20T03:33:49;22.50;59.50
2957;DHT22;1488;51.548;7.222;2023-12-20T03:36:17;22.60;59.60
2957;DHT22;1488;51.548;7.222;2023-12-20T03:38:44;22.50;59.50
2957;DHT22;1488;51.548;7.222;2023-12-20T03:41:11;22.50;59.60
2957;DHT22;1488;51.548;7.222;2023-12-20T03:43:38;22.50;59.50
2957;DHT22;1488;51.548;7.222;2023-12-20T03:46:05;22.60;59.50
2957;DHT22;1488;51.548;7.222;2023-12-20T03:48:33;22.50;59.50
2957;DHT22;1488;51.548;7.222;2023-12-20T03:51:00;22.50;59.50
2957;DHT22;1488;51.548;7.222;2023-12-20T03:53:26;22.50;59.50
2957;DHT22;1488;51.548;7.222;2023-12-20T03:55:53;22.50;59.50
2957;DHT22;1488;51.548;7.222;2023-12-20T03:58:20;22.60;59.60
2957;DHT22;1488;51.548;7.222;2023-12-20T04:00:46;22.50;59.60
2957;DHT22;1488;51.548;7.222;2023-12-20T04:03:13;22.50;59.50
2957;DHT22;1488;51.548;7.222;2023-12-20T04:05:41;22.50;59.50
2957;DHT22;1488;51.548;7.222;2023-12-20T04:08:08;22.50;59.50
2957;DHT22;1488;51.548;7.222;2023-12-20T04:10:35;22.50;59.50
2957;DHT22;1488;51.548;7.222;2023-12-20T04:13:03;22.50;59.50
2957;DHT22;1488;51.548;7.222;2023-12-20T04:15:29;22.50;59.50
2957;DHT22;1488;51.548;7.222;2023-12-20T04:17:56;22.50;59.50
2957;DHT22;1488;51.548;7.222;2023-12-20T04:20:23;22.50;59.40
2957;DHT22;1488;51.548;7.222;2023-12-20T04:22:51;22.50;59.40
2957;DHT22;1488;51.548;7.222;2023-12-20T04:25:18;22.50;59.40
2957;DHT22;1488;51.548;7.222;2023-12-20T04:27:45;22.60;59.50
2957;DHT22;1488;51.548;7.222;2023-12-20T04:30:12;22.60;59.50
2957;DHT22;1488;51.548;7.222;2023-12-20T04:32:38;22.50;59.50
2957;DHT22;1488;51.548;7.222;2023-12-20T04:35:05;22.50;59.50
2957;DHT22;1488;51.548;7.222;2023-12-20T04:37:31;22.50;59.50
2957;DHT22;1488;51.548;7.222;2023-12-20T04:39:59;22.40;59.40
2957;DHT22;1488;51.548;7.222;2023-12-20T04:42:27;22.50;59.50
2957;DHT22;1488;51.548;7.222;2023-12-20T04:44:53;22.50;59.40
2957;DHT22;1488;51.548;7.222;2023-12-20T04:47:20;22.50;59.50
2957;DHT22;1488;51.548;7.222;2023-12-20T04:49:47;22.50;59.50
2957;DHT22;1488;51.548;7.222;2023-12-20T04:52:14;22.50;59.40
2957;DHT22;1488;51.548;7.222;2023-12-20T04:54:41;22.50;59.40
2957;DHT22;1488;51.548;7.222;2023-12-20T04:57:09;22.50;59.50
2957;DHT22;1488;51.548;7.222;2023-12-20T04:59:36;22.50;59.50
2957;DHT22;1488;51.548;7.222;2023-12-20T05:02:03;22.50;59.40
2957;DHT22;1488;51.548;7.222;2023-12-20T05:04:29;22.50;59.40
2957;DHT22;1488;51.548;7.222;2023-12-20T05:06:56;22.50;59.40
2957;DHT22;1488;51.548;7.222;2023-12-20T05:09:23;22.50;59.40
2957;DHT22;1488;51.548;7.222;2023-12-20T05:11:50;22.50;59.30
2957;DHT22;1488;51.548;7.222;2023-12-20T05:14:18;22.50;59.30
2957;DHT22;1488;51.548;7.222;2023-12-20T05:16:44;22.50;59.30
2957;DHT22;1488;51.548;7.222;2023-12-20T05:19:11;22.50;59.30
2957;DHT22;1488;51.548;7.222;2023-12-20T05:21:38;22.50;59.30
2957;DHT22;1488;51.548;7.222;2023-12-20T05:24:05;22.50;59.20
2957;DHT22;1488;51.548;7.222;2023-12-20T05:26:32;22.50;59.30
2957;DHT22;1488;51.548;7.222;2023-12-20T05:28:58;22.60;59.30
2957;DHT22;1488;51.548;7.222;2023-12-20T05:31:27;22.60;59.20
2957;DHT22;1488;51.548;7.222;2023-12-20T05:33:54;22.60;59.20
2957;DHT22;1488;51.548;7.222;2023-12-20T05:36:20;22.60;59.20
2957;DHT22;1488;51.548;7.222;2023-12-20T05:38:47;22.60;59.20
2957;DHT22;1488;51.548;7.222;2023-12-20T05:41:14;22.60;59.20
2957;DHT22;1488;51.548;7.222;2023-12-20T05:43:41;22.60;59.20
2957;DHT22;1488;51.548;7.222;2023-12-20T05:46:09;22.60;59.20
2957;DHT22;1488;51.548;7.222;2023-12-20T05:48:38;22.60;59.10
2957;DHT22;1488;51.548;7.222;2023-12-20T05:51:05;22.60;59.10
2957;DHT22;1488;51.548;7.222;2023-12-20T05:53:31;22.60;59.10
2957;DHT22;1488;51.548;7.222;2023-12-20T05:55:58;22.70;59.00
2957;DHT22;1488;51.548;7.222;2023-12-20T05:58:26;22.60;59.00
2957;DHT22;1488;51.548;7.222;2023-12-20T06:00:54;22.60;58.90
2957;DHT22;1488;51.548;7.222;2023-12-20T06:03:21;22.60;58.90
2957;DHT22;1488;51.548;7.222;2023-12-20T06:05:50;22.60;58.90
2957;DHT22;1488;51.548;7.222;2023-12-20T06:08:17;22.60;59.00
2957;DHT22;1488;51.548;7.222;2023-12-20T06:10:44;22.60;59.00
2957;DHT22;1488;51.548;7.222;2023-12-20T06:13:11;22.60;59.00
2957;DHT22;1488;51.548;7.222;2023-12-20T06:15:38;22.60;59.10
2957;DHT22;1488;51.548;7.222;2023-12-20T06:18:05;22.60;59.00
2957;DHT22;1488;51.548;7.222;2023-12-20T06:20:32;22.60;59.10
2957;DHT22;1488;51.548;7.222;2023-12-20T06:23:00;22.60;59.10
2957;DHT22;1488;51.548;7.222;2023-12-20T06:25:27;22.70;59.10
2957;DHT22;1488;51.548;7.222;2023-12-20T06:27:54;22.70;59.20
2957;DHT22;1488;51.548;7.222;2023-12-20T06:30:21;22.70;59.10
2957;DHT22;1488;51.548;7.222;2023-12-20T06:32:48;22.70;59.10
2957;DHT22;1488;51.548;7.222;2023-12-20T06:35:15;22.70;59.10
2957;DHT22;1488;51.548;7.222;2023-12-20T06:37:41;22.70;59.10
2957;DHT22;1488;51.548;7.222;2023-12-20T06:40:11;22.70;59.20
2957;DHT22;1488;51.548;7.222;2023-12-20T06:42:38;22.70;59.10
2957;DHT22;1488;51.548;7.222;2023-12-20T06:45:09;22.70;59.00
2957;DHT22;1488;51.548;7.222;2023-12-20T06:47:36;22.70;59.00
2957;DHT22;1488;51.548;7.222;2023-12-20T06:50:03;22.70;59.00
2957;DHT22;1488;51.548;7.222;2023-12-20T06:52:30;22.70;59.00
2957;DHT22;1488;51.548;7.222;2023-12-20T06:54:56;22.70;59.40
2957;DHT22;1488;51.548;7.222;2023-12-20T06:57:25;22.70;58.90
2957;DHT22;1488;51.548;7.222;2023-12-20T06:59:52;22.70;58.90
2957;DHT22;1488;51.548;7.222;2023-12-20T07:02:18;22.70;59.10
2957;DHT22;1488;51.548;7.222;2023-12-20T07:04:46;22.70;59.00
2957;DHT22;1488;51.548;7.222;2023-12-20T07:07:13;22.70;58.80
2957;DHT22;1488;51.548;7.222;2023-12-20T07:09:40;22.70;59.00
2957;DHT22;1488;51.548;7.222;2023-12-20T07:12:08;22.70;59.00
2957;DHT22;1488;51.548;7.222;2023-12-20T07:14:36;22.80;58.90
2957;DHT22;1488;51.548;7.222;2023-12-20T07:17:03;22.80;59.10
2957;DHT22;1488;51.548;7.222;2023-12-20T07:19:30;22.80;59.10
2957;DHT22;1488;51.548;7.222;2023-12-20T07:21:58;22.70;58.70
2957;DHT22;1488;51.548;7.222;2023-12-20T07:24:24;22.70;58.30
2957;DHT22;1488;51.548;7.222;2023-12-20T07:26:51;22.70;58.70
2957;DHT22;1488;51.548;7.222;2023-12-20T07:29:18;22.70;59.00
2957;DHT22;1488;51.548;7.222;2023-12-20T07:31:46;22.70;59.10
2957;DHT22;1488;51.548;7.222;2023-12-20T07:34:13;22.70;59.10
2957;DHT22;1488;51.548;7.222;2023-12-20T07:36:39;22.70;59.00
2957;DHT22;1488;51.548;7.222;2023-12-20T07:39:06;22.70;59.10
2957;DHT22;1488;51.548;7.222;2023-12-20T07:41:33;22.70;59.20
2957;DHT22;1488;51.548;7.222;2023-12-20T07:44:00;22.70;59.00
2957;DHT22;1488;51.548;7.222;2023-12-20T07:46:26;22.70;59.00
2957;DHT22;1488;51.548;7.222;2023-12-20T07:48:54;22.70;59.00
2957;DHT22;1488;51.548;7.222;2023-12-20T07:51:21;22.70;59.00
2957;DHT22;1488;51.548;7.222;2023-12-20T07:53:48;22.70;59.00
2957;DHT22;1488;51.548;7.222;2023-12-20T07:56:15;22.70;59.10
2957;DHT22;1488;51.548;7.222;2023-12-20T07:58:42;22.70;59.00
2957;DHT22;1488;51.548;7.222;2023-12-20T08:01:10;22.70;59.00
2957;DHT22;1488;51.548;7.222;2023-12-20T08:03:36;22.70;59.00
2957;DHT22;1488;51.548;7.222;2023-12-20T08:06:05;22.70;59.10
2957;DHT22;1488;51.548;7.222;2023-12-20T08:08:31;22.80;59.10
2957;DHT22;1488;51.548;7.222;2023-12-20T08:10:58;22.80;59.00
2957;DHT22;1488;51.548;7.222;2023-12-20T08:13:26;22.80;59.10
2957;DHT22;1488;51.548;7.222;2023-12-20T08:15:53;22.80;59.00
2957;DHT22;1488;51.548;7.222;2023-12-20T08:18:21;22.80;59.00
2957;DHT22;1488;51.548;7.222;2023-12-20T08:20:48;22.80;59.00
2957;DHT22;1488;51.548;7.222;2023-12-20T08:23:16;22.80;59.10
2957;DHT22;1488;51.548;7.222;2023-12-20T08:25:43;22.80;59.10
2957;DHT22;1488;51.548;7.222;2023-12-20T08:28:10;22.80;59.00
2957;DHT22;1488;51.548;7.222;2023-12-20T08:30:37;22.80;59.10
2957;DHT22;1488;51.548;7.222;2023-12-20T08:33:04;22.80;58.80
2957;DHT22;1488;51.548;7.222;2023-12-20T08:35:33;22.80;59.10
2957;DHT22;1488;51.548;7.222;2023-12-20T08:38:01;22.80;59.00
2957;DHT22;1488;51.548;7.222;2023-12-20T08:40:29;22.80;59.20
2957;DHT22;1488;51.548;7.222;2023-12-20T08:42:56;22.80;59.10
2957;DHT22;1488;51.548;7.222;2023-12-20T08:45:22;22.80;59.10
2957;DHT22;1488;51.548;7.222;2023-12-20T08:47:50;22.80;58.90
2957;DHT22;1488;51.548;7.222;2023-12-20T08:50:16;22.80;58.90
2957;DHT22;1488;51.548;7.222;2023-12-20T08:52:43;22.80;59.10
2957;DHT22;1488;51.548;7.222;2023-12-20T08:55:10;22.80;58.90
2957;DHT22;1488;51.548;7.222;2023-12-20T08:57:39;22.80;58.90
2957;DHT22;1488;51.548;7.222;2023-12-20T09:00:07;22.80;58.90
2957;DHT22;1488;51.548;7.222;2023-12-20T09:02:34;22.80;58.90
2957;DHT22;1488;51.548;7.222;2023-12-20T09:05:03;22.80;59.00
2957;DHT22;1488;51.548;7.222;2023-12-20T09:07:30;22.80;58.80
2957;DHT22;1488;51.548;7.222;2023-12-20T09:09:57;22.80;58.90
2957;DHT22;1488;51.548;7.222;2023-12-20T09:12:25;22.80;58.90
2957;DHT22;1488;51.548;7.222;2023-12-20T09:14:53;22.90;59.10
2957;DHT22;1488;51.548;7.222;2023-12-20T09:17:20;22.80;59.10
2957;DHT22;1488;51.548;7.222;2023-12-20T09:19:48;22.80;59.10
2957;DHT22;1488;51.548;7.222;2023-12-20T09:22:17;22.80;59.10
2957;DHT22;1488;51.548;7.222;2023-12-20T09:24:44;22.80;59.00
2957;DHT22;1488;51.548;7.222;2023-12-20T09:27:11;22.80;58.90
2957;DHT22;1488;51.548;7.222;2023-12-20T09:29:38;22.80;59.00
2957;DHT22;1488;51.548;7.222;2023-12-20T09:32:06;22.80;58.90
2957;DHT22;1488;51.548;7.222;2023-12-20T09:34:33;22.80;59.00
2957;DHT22;1488;51.548;7.222;2023-12-20T09:37:00;22.80;59.00
2957;DHT22;1488;51.548;7.222;2023-12-20T09:39:28;22.80;58.90
2957;DHT22;1488;51.548;7.222;2023-12-20T09:42:01;22.80;58.90
2957;DHT22;1488;51.548;7.222;2023-12-20T09:44:28;22.80;58.90
2957;DHT22;1488;51.548;7.222;2023-12-20T09:46:56;22.80;58.90
2957;DHT22;1488;51.548;7.222;2023-12-20T09:49:25;22.80;58.90
2957;DHT22;1488;51.548;7.222;2023-12-20T09:51:54;22.80;58.90
2957;DHT22;1488;51.548;7.222;2023-12-20T09:54:21;22.80;58.80
2957;DHT22;1488;51.548;7.222;2023-12-20T09:56:49;22.80;58.80
2957;DHT22;1488;51.548;7.222;2023-12-20T09:59:16;22.80;58.80
2957;DHT22;1488;51.548;7.222;2023-12-20T10:01:43;22.80;58.60
2957;DHT22;1488;51.548;7.222;2023-12-20T10:04:10;22.80;58.80
2957;DHT22;1488;51.548;7.222;2023-12-20T10:06:41;22.80;58.80
2957;DHT22;1488;51.548;7.222;2023-12-20T10:09:08;22.90;58.90
2957;DHT22;1488;51.548;7.222;2023-12-20T10:11:35;22.90;58.80
2957;DHT22;1488;51.548;7.222;2023-12-20T10:14:04;22.80;58.80
2957;DHT22;1488;51.548;7.222;2023-12-20T10:16:31;22.80;58.70
2957;DHT22;1488;51.548;7.222;2023-12-20T10:18:59;22.90;58.70
2957;DHT22;1488;51.548;7.222;2023-12-20T10:21:26;22.80;58.70
2957;DHT22;1488;51.548;7.222;2023-12-20T10:23:55;22.80;58.80
2957;DHT22;1488;51.548;7.222;2023-12-20T10:26:23;22.80;58.90
2957;DHT22;1488;51.548;7.222;2023-12-20T10:28:51;22.80;58.90
2957;DHT22;1488;51.548;7.222;2023-12-20T10:31:28;22.80;58.80
2957;DHT22;1488;51.548;7.222;2023-12-20T10:33:56;22.90;58.80
2957;DHT22;1488;51.548;7.222;2023-12-20T10:36:24;22.80;58.70
2957;DHT22;1488;51.548;7.222;2023-12-20T10:38:52;22.80;58.80
2957;DHT22;1488;51.548;7.222;2023-12-20T10:41:25;22.80;58.70
2957;DHT22;1488;51.548;7.222;2023-12-20T13:56:46;22.80;58.70
2957;DHT22;1488;51.548;7.222;2023-12-20T13:59:13;22.80;58.50
2957;DHT22;1488;51.548;7.222;2023-12-20T14:01:40;22.80;58.20
2957;DHT22;1488;51.548;7.222;2023-12-20T14:04:07;22.90;58.20
2957;DHT22;1488;51.548;7.222;2023-12-20T14:06:34;22.90;58.40
2957;DHT22;1488;51.548;7.222;2023-12-20T14:09:01;22.90;58.60
2957;DHT22;1488;51.548;7.222;2023-12-20T14:11:28;22.90;58.50
2957;DHT22;1488;51.548;7.222;2023-12-20T14:13:56;22.90;58.60
2957;DHT22;1488;51.548;7.222;2023-12-20T14:16:24;22.90;58.60
2957;DHT22;1488;51.548;7.222;2023-12-20T14:18:50;22.90;58.60
2957;DHT22;1488;51.548;7.222;2023-12-20T14:21:18;22.90;58.50
2957;DHT22;1488;51.548;7.222;2023-12-20T14:23:45;22.90;58.50
2957;DHT22;1488;51.548;7.222;2023-12-20T14:26:13;22.90;58.60
2957;DHT22;1488;51.548;7.222;2023-12-20T14:28:40;22.90;58.50
2957;DHT22;1488;51.548;7.222;2023-12-20T14:31:09;22.90;58.40
2957;DHT22;1488;51.548;7.222;2023-12-20T14:33:37;23.00;58.50
2957;DHT22;1488;51.548;7.222;2023-12-20T14:36:05;23.00;58.60
2957;DHT22;1488;51.548;7.222;2023-12-20T14:38:32;23.00;58.60
2957;DHT22;1488;51.548;7.222;2023-12-20T14:40:59;23.00;58.60
2957;DHT22;1488;51.548;7.222;2023-12-20T14:43:26;22.90;59.10
2957;DHT22;1488;51.548;7.222;2023-12-20T14:45:53;22.90;58.50
2957;DHT22;1488;51.548;7.222;2023-12-20T14:48:21;22.90;58.60
2957;DHT22;1488;51.548;7.222;2023-12-20T14:50:48;22.90;58.60
2957;DHT22;1488;51.548;7.222;2023-12-20T14:53:16;22.90;58.60
2957;DHT22;1488;51.548;7.222;2023-12-20T14:55:44;22.90;58.60
2957;DHT22;1488;51.548;7.222;2023-12-20T14:58:12;23.00;58.60
2957;DHT22;1488;51.548;7.222;2023-12-20T15:00:40;22.90;59.10
2957;DHT22;1488;51.548;7.222;2023-12-20T15:03:07;22.90;58.60
2957;DHT22;1488;51.548;7.222;2023-12-20T15:05:35;23.00;58.60
2957;DHT22;1488;51.548;7.222;2023-12-20T15:08:02;23.00;58.60
2957;DHT22;1488;51.548;7.222;2023-12-20T15:10:29;23.00;58.60
2957;DHT22;1488;51.548;7.222;2023-12-20T15:12:56;23.00;58.60
2957;DHT22;1488;51.548;7.222;2023-12-20T15:15:23;23.00;58.90
2957;DHT22;1488;51.548;7.222;2023-12-20T15:17:50;23.00;58.70
2957;DHT22;1488;51.548;7.222;2023-12-20T15:20:17;23.00;58.70
2957;DHT22;1488;51.548;7.222;2023-12-20T15:22:45;23.00;58.70
2957;DHT22;1488;51.548;7.222;2023-12-20T15:25:12;22.90;58.60
2957;DHT22;1488;51.548;7.222;2023-12-20T15:27:45;22.90;58.60
2957;DHT22;1488;51.548;7.222;2023-12-20T15:30:14;23.00;58.70
2957;DHT22;1488;51.548;7.222;2023-12-20T15:32:41;23.00;58.60
2957;DHT22;1488;51.548;7.222;2023-12-20T15:35:08;23.00;58.70
2957;DHT22;1488;51.548;7.222;2023-12-20T15:37:35;23.00;58.60
2957;DHT22;1488;51.548;7.222;2023-12-20T15:40:04;23.00;58.60
2957;DHT22;1488;51.548;7.222;2023-12-20T15:42:31;23.00;58.70
2957;DHT22;1488;51.548;7.222;2023-12-20T15:45:01;23.00;58.70
2957;DHT22;1488;51.548;7.222;2023-12-20T15:47:28;23.00;58.70
2957;DHT22;1488;51.548;7.222;2023-12-20T15:49:55;23.00;58.80
2957;DHT22;1488;51.548;7.222;2023-12-20T15:52:22;23.00;58.90
2957;DHT22;1488;51.548;7.222;2023-12-20T15:54:49;23.00;57.70
2957;DHT22;1488;51.548;7.222;2023-12-20T15:57:18;22.90;57.00
2957;DHT22;1488;51.548;7.222;2023-12-20T15:59:45;22.80;57.40
2957;DHT22;1488;51.548;7.222;2023-12-20T16:02:11;22.80;57.80
2957;DHT22;1488;51.548;7.222;2023-12-20T16:04:38;22.70;58.20
2957;DHT22;1488;51.548;7.222;2023-12-20T16:07:05;22.70;58.70
2957;DHT22;1488;51.548;7.222;2023-12-20T16:09:32;22.70;58.80
2957;DHT22;1488;51.548;7.222;2023-12-20T16:11:58;22.70;58.80
2957;DHT22;1488;51.548;7.222;2023-12-20T16:14:26;22.80;58.90
2957;DHT22;1488;51.548;7.222;2023-12-20T16:16:55;22.80;58.60
2957;DHT22;1488;51.548;7.222;2023-12-20T16:19:22;22.80;58.60
2957;DHT22;1488;51.548;7.222;2023-12-20T16:21:48;22.90;58.60
2957;DHT22;1488;51.548;7.222;2023-12-20T16:24:15;22.90;58.60
2957;DHT22;1488;51.548;7.222;2023-12-20T16:26:42;22.90;58.60
2957;DHT22;1488;51.548;7.222;2023-12-20T16:29:09;22.90;58.50
2957;DHT22;1488;51.548;7.222;2023-12-20T16:31:39;22.90;58.50
2957;DHT22;1488;51.548;7.222;2023-12-20T16:34:06;22.90;58.60
2957;DHT22;1488;51.548;7.222;2023-12-20T16:36:48;22.90;58.50
2957;DHT22;1488;51.548;7.222;2023-12-20T16:39:15;22.90;58.50
2957;DHT22;1488;51.548;7.222;2023-12-20T16:41:42;22.90;58.50
2957;DHT22;1488;51.548;7.222;2023-12-20T16:44:09;23.00;58.60
2957;DHT22;1488;51.548;7.222;2023-12-20T16:46:35;23.00;58.60
2957;DHT22;1488;51.548;7.222;2023-12-20T16:49:04;22.90;58.50
2957;DHT22;1488;51.548;7.222;2023-12-20T16:51:30;22.90;58.50
2957;DHT22;1488;51.548;7.222;2023-12-20T16:53:57;22.90;58.50
2957;DHT22;1488;51.548;7.222;2023-12-20T16:56:24;22.90;58.50
2957;DHT22;1488;51.548;7.222;2023-12-20T16:58:51;22.90;58.60
2957;DHT22;1488;51.548;7.222;2023-12-20T17:01:17;23.00;58.60
2957;DHT22;1488;51.548;7.222;2023-12-20T17:03:45;22.90;58.50
2957;DHT22;1488;51.548;7.222;2023-12-20T17:06:13;23.00;58.50
2957;DHT22;1488;51.548;7.222;2023-12-20T17:08:41;23.00;58.50
2957;DHT22;1488;51.548;7.222;2023-12-20T17:11:09;22.90;58.40
2957;DHT22;1488;51.548;7.222;2023-12-20T17:13:35;22.90;58.50
2957;DHT22;1488;51.548;7.222;2023-12-20T17:16:02;23.00;58.50
2957;DHT22;1488;51.548;7.222;2023-12-20T17:18:29;22.90;58.50
2957;DHT22;1488;51.548;7.222;2023-12-20T17:20:56;22.90;58.50
2957;DHT22;1488;51.548;7.222;2023-12-20T17:23:24;23.00;58.60
2957;DHT22;1488;51.548;7.222;2023-12-20T17:25:51;22.90;58.50
2957;DHT22;1488;51.548;7.222;2023-12-20T17:28:18;23.00;58.50
2957;DHT22;1488;51.548;7.222;2023-12-20T17:30:44;23.00;58.50
2957;DHT22;1488;51.548;7.222;2023-12-20T17:33:11;23.00;58.50
2957;DHT22;1488;51.548;7.222;2023-12-20T17:35:38;23.00;58.40
2957;DHT22;1488;51.548;7.222;2023-12-20T17:38:05;23.00;58.50
2957;DHT22;1488;51.548;7.222;2023-12-20T17:40:33;23.00;58.50
2957;DHT22;1488;51.548;7.222;2023-12-20T17:43:01;23.00;58.50
2957;DHT22;1488;51.548;7.222;2023-12-20T17:45:27;23.00;58.50
2957;DHT22;1488;51.548;7.222;2023-12-20T17:47:54;23.00;58.50
2957;DHT22;1488;51.548;7.222;2023-12-20T17:50:20;22.90;58.50
2957;DHT22;1488;51.548;7.222;2023-12-20T17:52:47;22.90;58.50
2957;DHT22;1488;51.548;7.222;2023-12-20T17:55:14;23.00;58.50
2957;DHT22;1488;51.548;7.222;2023-12-20T17:57:42;22.90;58.50
2957;DHT22;1488;51.548;7.222;2023-12-20T18:00:13;23.00;58.60
2957;DHT22;1488;51.548;7.222;2023-12-20T18:02:40;22.90;58.50
2957;DHT22;1488;51.548;7.222;2023-12-20T18:05:07;22.90;58.50
2957;DHT22;1488;51.548;7.222;2023-12-20T18:07:34;23.00;58.50
2957;DHT22;1488;51.548;7.222;2023-12-20T18:10:01;23.00;58.50
2957;DHT22;1488;51.548;7.222;2023-12-20T18:12:29;23.10;59.20
2957;DHT22;1488;51.548;7.222;2023-12-20T18:14:57;23.00;58.50
2957;DHT22;1488;51.548;7.222;2023-12-20T18:17:25;23.00;58.50
2957;DHT22;1488;51.548;7.222;2023-12-20T18:19:52;23.00;58.50
2957;DHT22;1488;51.548;7.222;2023-12-20T18:22:19;23.00;58.50
2957;DHT22;1488;51.548;7.222;2023-12-20T18:24:46;23.00;58.50
2957;DHT22;1488;51.548;7.222;2023-12-20T18:27:14;23.00;58.50
2957;DHT22;1488;51.548;7.222;2023-12-20T18:29:41;23.00;58.50
2957;DHT22;1488;51.548;7.222;2023-12-20T18:32:09;23.00;58.50
2957;DHT22;1488;51.548;7.222;2023-12-20T18:34:36;23.00;59.10
2957;DHT22;1488;51.548;7.222;2023-12-20T18:37:03;23.00;58.60
2957;DHT22;1488;51.548;7.222;2023-12-20T18:39:31;23.00;59.00
2957;DHT22;1488;51.548;7.222;2023-12-20T18:41:58;23.00;58.50
2957;DHT22;1488;51.548;7.222;2023-12-20T18:44:25;22.90;58.30
2957;DHT22;1488;51.548;7.222;2023-12-20T18:46:52;23.00;58.50
2957;DHT22;1488;51.548;7.222;2023-12-20T18:49:20;23.00;58.40
2957;DHT22;1488;51.548;7.222;2023-12-20T18:51:47;23.00;58.40
2957;DHT22;1488;51.548;7.222;2023-12-20T18:54:13;23.00;58.50
2957;DHT22;1488;51.548;7.222;2023-12-20T18:56:40;23.00;58.60
2957;DHT22;1488;51.548;7.222;2023-12-20T18:59:08;23.00;58.40
2957;DHT22;1488;51.548;7.222;2023-12-20T19:01:35;23.00;58.50
2957;DHT22;1488;51.548;7.222;2023-12-20T19:04:01;23.10;58.70
2957;DHT22;1488;51.548;7.222;2023-12-20T19:06:30;23.00;58.50
2957;DHT22;1488;51.548;7.222;2023-12-20T19:08:56;23.00;58.50
2957;DHT22;1488;51.548;7.222;2023-12-20T19:11:23;23.00;57.20
2957;DHT22;1488;51.548;7.222;2023-12-20T19:13:50;22.80;57.90